Time;durP1;ratioP1;P1;durP2;ratioP2;P2;SDS_P1;SDS_P2;PMS_P1;PMS_P2;Temp;Humidity;BMP_temperature;BMP_pressure;BME280_temperature;BME280_humidity;BME280_pressure;Samples;Min_cycle;Max_cycle;Signal;HPM_P1;HPM_P2
2023/07/18 00:00:36;;;;;;;0.35;0.35;;;14.30;99.90;;;;;;5094256;28;20036;-72
2023/07/18 00:03:03;;;;;;;0.47;0.47;;;14.20;99.90;;;;;;5094217;28;20043;-72
2023/07/18 00:05:29;;;;;;;0.30;0.30;;;14.20;99.90;;;;;;5094099;28;20040;-72
2023/07/18 00:07:55;;;;;;;0.30;0.30;;;14.20;99.90;;;;;;5094227;28;20035;-73
2023/07/18 00:10:22;;;;;;;0.47;0.30;;;14.10;99.90;;;;;;5094371;28;20266;-72
2023/07/18 00:12:48;;;;;;;0.30;0.30;;;14.10;99.90;;;;;;5093947;28;20115;-73
2023/07/18 00:15:14;;;;;;;0.60;0.60;;;14.10;99.90;;;;;;5094081;28;20126;-72
2023/07/18 00:17:41;;;;;;;0.40;0.40;;;14.00;99.90;;;;;;5093529;28;20075;-72
2023/07/18 00:20:09;;;;;;;0.30;0.30;;;14.00;99.90;;;;;;5093128;28;20410;-72
2023/07/18 00:22:35;;;;;;;0.30;0.30;;;14.00;99.90;;;;;;5093917;28;20036;-72
2023/07/18 00:25:02;;;;;;;0.30;0.30;;;13.90;99.90;;;;;;5093900;28;20376;-73
2023/07/18 00:27:28;;;;;;;0.30;0.30;;;13.90;99.90;;;;;;5093912;28;20048;-72
2023/07/18 00:29:55;;;;;;;0.40;0.40;;;13.90;99.90;;;;;;5093893;28;20071;-72
2023/07/18 00:32:22;;;;;;;0.30;0.30;;;13.90;99.90;;;;;;5093653;28;20119;-72
2023/07/18 00:34:49;;;;;;;0.30;0.30;;;13.90;99.90;;;;;;5093485;28;20158;-72
2023/07/18 00:37:15;;;;;;;;;;;13.80;99.90;;;;;;5093888;28;20040;-72
2023/07/18 00:39:41;;;;;;;0.38;0.38;;;13.90;99.90;;;;;;5093760;28;19916;-72
2023/07/18 00:42:07;;;;;;;0.40;0.40;;;13.80;99.90;;;;;;5093706;28;20079;-72
2023/07/18 00:44:33;;;;;;;0.40;0.40;;;13.80;99.90;;;;;;5092482;28;20087;-72
2023/07/18 00:46:59;;;;;;;0.40;0.40;;;13.80;99.90;;;;;;5093582;28;20032;-72
2023/07/18 00:49:25;;;;;;;0.30;0.30;;;13.80;99.90;;;;;;5093428;28;20044;-72
2023/07/18 00:51:51;;;;;;;0.32;0.32;;;13.80;99.90;;;;;;5093616;28;20044;-72
2023/07/18 00:54:17;;;;;;;0.30;0.30;;;13.80;99.90;;;;;;5094143;28;20044;-72
2023/07/18 00:56:43;;;;;;;1.35;0.55;;;13.80;99.90;;;;;;5093563;28;20482;-72
2023/07/18 00:59:13;;;;;;;0.32;0.32;;;13.70;99.90;;;;;;5093921;28;20074;-72
2023/07/18 01:01:39;;;;;;;0.30;0.30;;;13.70;99.90;;;;;;5093502;28;20036;-72
2023/07/18 01:04:05;;;;;;;0.40;0.40;;;13.70;99.90;;;;;;5092166;28;20051;-72
2023/07/18 01:06:32;;;;;;;0.30;0.30;;;13.70;99.90;;;;;;5093995;28;20514;-72
2023/07/18 01:08:57;;;;;;;;;;;13.70;99.90;;;;;;5094257;28;20055;-73
2023/07/18 01:11:23;;;;;;;0.40;0.40;;;13.70;99.90;;;;;;5093366;28;19953;-72
2023/07/18 01:13:48;;;;;;;0.40;0.40;;;13.70;99.90;;;;;;5093470;28;20032;-72
2023/07/18 01:16:15;;;;;;;0.30;0.30;;;13.70;99.90;;;;;;5095347;28;20040;-72
2023/07/18 01:18:41;;;;;;;0.30;0.30;;;13.60;99.90;;;;;;5112980;28;20475;-72
2023/07/18 01:21:09;;;;;;;0.30;0.30;;;13.60;99.90;;;;;;5097409;28;20515;-72
2023/07/18 01:23:35;;;;;;;0.30;0.30;;;13.60;99.90;;;;;;5096088;28;20044;-72
2023/07/18 01:26:00;;;;;;;0.40;0.40;;;13.60;99.90;;;;;;5097299;28;20037;-72
2023/07/18 01:28:26;;;;;;;0.40;0.40;;;13.50;99.90;;;;;;5097235;28;20040;-72
2023/07/18 01:30:51;;;;;;;0.30;0.30;;;13.60;99.90;;;;;;5097360;28;20071;-72
2023/07/18 01:33:17;;;;;;;0.40;0.40;;;13.50;99.90;;;;;;5097134;28;20036;-72
2023/07/18 01:35:43;;;;;;;0.30;0.30;;;13.60;99.90;;;;;;5096802;28;20050;-72
2023/07/18 01:38:08;;;;;;;0.40;0.40;;;13.50;99.90;;;;;;5097076;28;20110;-72
2023/07/18 01:40:34;;;;;;;0.30;0.30;;;13.40;99.90;;;;;;5097048;28;20391;-72
2023/07/18 01:43:00;;;;;;;0.40;0.40;;;13.50;99.90;;;;;;5095711;28;20488;-72
2023/07/18 01:45:27;;;;;;;0.38;0.38;;;13.40;99.90;;;;;;5096870;28;20062;-72
2023/07/18 01:47:54;;;;;;;0.50;0.50;;;13.50;99.90;;;;;;5096864;28;20081;-73
2023/07/18 01:50:20;;;;;;;0.40;0.40;;;13.50;99.90;;;;;;5096790;28;20040;-72
2023/07/18 01:52:47;;;;;;;0.37;0.37;;;13.40;99.90;;;;;;5097328;28;20081;-73
2023/07/18 01:55:12;;;;;;;0.40;0.40;;;13.40;99.90;;;;;;5096778;28;20032;-73
2023/07/18 01:57:38;;;;;;;0.30;0.30;;;13.40;99.90;;;;;;5096659;28;20040;-72
2023/07/18 02:00:05;;;;;;;0.40;0.40;;;13.40;99.90;;;;;;5096602;28;20044;-73
2023/07/18 02:02:30;;;;;;;;;;;13.40;99.90;;;;;;5097029;28;20075;-72
2023/07/18 02:04:57;;;;;;;0.60;0.60;;;13.40;99.90;;;;;;5096367;28;20024;-72
2023/07/18 02:07:22;;;;;;;0.30;0.30;;;13.30;99.90;;;;;;5096522;28;20044;-72
2023/07/18 02:09:49;;;;;;;0.30;0.30;;;13.40;99.90;;;;;;5096791;28;20047;-72
2023/07/18 02:12:16;;;;;;;0.40;0.40;;;13.40;99.90;;;;;;5095733;28;20064;-73
2023/07/18 02:14:42;;;;;;;0.30;0.30;;;13.40;99.90;;;;;;5096387;28;20483;-72
2023/07/18 02:17:08;;;;;;;0.30;0.30;;;13.40;99.90;;;;;;5096048;28;20056;-72
2023/07/18 02:19:37;;;;;;;0.40;0.40;;;13.40;99.90;;;;;;5095946;28;20051;-72
2023/07/18 02:22:03;;;;;;;0.85;0.40;;;13.30;99.90;;;;;;5096225;28;20093;-72
2023/07/18 02:24:29;;;;;;;0.50;0.50;;;13.30;99.90;;;;;;5096117;28;20123;-72
2023/07/18 02:26:55;;;;;;;0.40;0.40;;;13.30;99.90;;;;;;5094955;28;20131;-72
2023/07/18 02:29:21;;;;;;;0.30;0.30;;;13.30;99.90;;;;;;5096149;28;20064;-72
2023/07/18 02:31:47;;;;;;;0.40;0.40;;;13.30;99.90;;;;;;5096326;28;20046;-72
2023/07/18 02:34:12;;;;;;;0.40;0.40;;;13.20;99.90;;;;;;5095963;28;20043;-72
2023/07/18 02:36:38;;;;;;;0.30;0.30;;;13.30;99.90;;;;;;5096423;28;20078;-72
2023/07/18 02:39:07;;;;;;;0.40;0.40;;;13.20;99.90;;;;;;5095918;28;20047;-72
2023/07/18 02:41:36;;;;;;;0.30;0.30;;;13.20;99.90;;;;;;5096151;28;20048;-72
2023/07/18 02:44:02;;;;;;;0.40;0.40;;;13.20;99.90;;;;;;5095713;28;20082;-73
2023/07/18 02:46:28;;;;;;;0.40;0.40;;;13.20;99.90;;;;;;5095266;28;20042;-72
2023/07/18 02:48:54;;;;;;;0.52;0.52;;;13.10;99.90;;;;;;5095773;28;20745;-72
2023/07/18 02:51:19;;;;;;;0.30;0.30;;;13.10;99.90;;;;;;5095447;28;20124;-72
2023/07/18 02:53:45;;;;;;;0.40;0.40;;;13.10;99.90;;;;;;5095650;28;20040;-72
2023/07/18 02:56:10;;;;;;;0.40;0.40;;;13.10;99.90;;;;;;5095345;28;20028;-72
2023/07/18 02:58:36;;;;;;;0.30;0.30;;;13.10;99.90;;;;;;5095711;28;20043;-72
2023/07/18 03:01:03;;;;;;;0.40;0.40;;;13.10;99.90;;;;;;5095472;28;20075;-72
2023/07/18 03:03:30;;;;;;;0.32;0.32;;;13.10;99.90;;;;;;5095390;28;20043;-72
2023/07/18 03:05:56;;;;;;;0.43;0.43;;;13.10;99.90;;;;;;5095601;28;20036;-72
2023/07/18 03:08:22;;;;;;;0.30;0.30;;;13.10;99.90;;;;;;5095369;28;20070;-72
2023/07/18 03:10:48;;;;;;;0.38;0.38;;;13.10;99.90;;;;;;5095339;28;20039;-72
2023/07/18 03:13:13;;;;;;;0.30;0.30;;;13.00;99.90;;;;;;5095076;28;20467;-72
2023/07/18 03:15:39;;;;;;;0.40;0.40;;;13.00;99.90;;;;;;5095508;28;20093;-72
2023/07/18 03:18:09;;;;;;;0.30;0.30;;;13.00;99.90;;;;;;5093818;28;20048;-73
2023/07/18 03:20:34;;;;;;;0.40;0.40;;;13.00;99.90;;;;;;5095094;28;20044;-72
2023/07/18 03:23:01;;;;;;;0.60;0.60;;;13.10;99.90;;;;;;5095371;28;20040;-72
2023/07/18 03:25:27;;;;;;;;;;;13.00;99.90;;;;;;5095309;28;20036;-72
2023/07/18 03:27:53;;;;;;;0.40;0.40;;;13.00;99.90;;;;;;5094891;28;19973;-72
2023/07/18 03:30:19;;;;;;;0.30;0.30;;;13.00;99.90;;;;;;5094692;28;20085;-72
2023/07/18 03:32:45;;;;;;;0.40;0.40;;;13.00;99.90;;;;;;5094470;28;20035;-72
2023/07/18 03:35:11;;;;;;;0.30;0.30;;;13.40;99.90;;;;;;5094793;28;20028;-72
2023/07/18 03:37:37;;;;;;;0.65;0.55;;;12.90;99.90;;;;;;5094844;28;20166;-72
2023/07/18 03:40:06;;;;;;;0.40;0.40;;;12.90;99.90;;;;;;5094868;28;20126;-73
2023/07/18 03:42:34;;;;;;;0.30;0.30;;;12.90;99.90;;;;;;5094669;28;20043;-72
2023/07/18 03:45:00;;;;;;;0.30;0.30;;;12.90;99.90;;;;;;5094257;28;20071;-72
2023/07/18 03:47:26;;;;;;;1.70;0.40;;;12.90;99.90;;;;;;5094312;28;20036;-72
2023/07/18 03:49:51;;;;;;;0.30;0.30;;;12.90;99.90;;;;;;5094898;28;20043;-72
2023/07/18 03:52:18;;;;;;;0.40;0.40;;;12.90;99.90;;;;;;5094467;28;20036;-72
2023/07/18 03:54:45;;;;;;;0.30;0.30;;;12.90;99.90;;;;;;5094436;28;20036;-72
2023/07/18 03:57:12;;;;;;;0.47;0.47;;;12.90;99.90;;;;;;5094384;28;20044;-72
2023/07/18 03:59:37;;;;;;;;;;;12.90;99.90;;;;;;5094805;28;20379;-72
2023/07/18 04:02:03;;;;;;;0.40;0.40;;;13.00;99.90;;;;;;5094036;28;19923;-73
2023/07/18 04:04:30;;;;;;;0.50;0.50;;;13.00;99.90;;;;;;5110186;28;20050;-72
2023/07/18 04:06:56;;;;;;;0.45;0.45;;;13.00;99.90;;;;;;5094308;28;20043;-72
2023/07/18 04:09:21;;;;;;;0.40;0.40;;;13.00;99.90;;;;;;5094093;28;20044;-73
2023/07/18 04:11:47;;;;;;;0.50;0.50;;;13.00;99.90;;;;;;5093883;28;20044;-72
2023/07/18 04:14:13;;;;;;;0.50;0.50;;;13.10;99.90;;;;;;5094180;28;20434;-74
2023/07/18 04:16:39;;;;;;;0.30;0.30;;;13.10;99.90;;;;;;5093895;28;20043;-70
2023/07/18 04:19:05;;;;;;;0.30;0.30;;;13.10;99.90;;;;;;5094687;28;20048;-75
2023/07/18 04:21:31;;;;;;;0.40;0.40;;;13.20;99.90;;;;;;5094397;28;20173;-74
2023/07/18 04:23:56;;;;;;;0.50;0.50;;;13.20;99.90;;;;;;5094193;28;20118;-72
2023/07/18 04:26:22;;;;;;;0.40;0.40;;;13.20;99.90;;;;;;5093974;28;20094;-73
2023/07/18 04:28:48;;;;;;;0.40;0.40;;;13.30;99.90;;;;;;5093985;28;20043;-73
2023/07/18 04:31:14;;;;;;;0.40;0.40;;;13.30;99.90;;;;;;5093826;28;20372;-70
2023/07/18 04:33:40;;;;;;;0.30;0.30;;;13.40;99.90;;;;;;5093934;28;20123;-74
2023/07/18 04:36:07;;;;;;;0.40;0.40;;;13.40;99.90;;;;;;5094002;28;20485;-74
2023/07/18 04:38:34;;;;;;;;;;;13.40;99.90;;;;;;5094298;28;20079;-70
2023/07/18 04:41:00;;;;;;;0.50;0.50;;;13.50;99.90;;;;;;5093853;28;20282;-72
2023/07/18 04:43:26;;;;;;;0.40;0.40;;;13.60;99.90;;;;;;5093884;28;20055;-76
2023/07/18 04:45:51;;;;;;;0.40;0.40;;;13.60;99.90;;;;;;5093676;28;20036;-74
2023/07/18 04:48:18;;;;;;;0.30;0.30;;;13.80;99.90;;;;;;5093681;28;20093;-76
2023/07/18 04:50:46;;;;;;;;;;;13.90;99.90;;;;;;5093097;28;20044;-76
2023/07/18 04:53:12;;;;;;;0.40;0.40;;;14.00;99.90;;;;;;5093653;28;19973;-73
2023/07/18 04:55:39;;;;;;;0.40;0.40;;;14.10;99.90;;;;;;5093692;28;20040;-75
2023/07/18 04:58:06;;;;;;;0.30;0.30;;;14.20;99.90;;;;;;5093567;28;20046;-74
2023/07/18 05:00:32;;;;;;;0.40;0.40;;;14.20;99.90;;;;;;5093554;28;20487;-72
2023/07/18 05:02:59;;;;;;;0.30;0.30;;;14.30;99.90;;;;;;5093591;28;20110;-71
2023/07/18 05:05:28;;;;;;;0.40;0.40;;;14.40;99.90;;;;;;5093360;28;20298;-73
2023/07/18 05:07:55;;;;;;;0.60;0.60;;;14.40;99.90;;;;;;5093488;28;20119;-70
2023/07/18 05:10:22;;;;;;;0.30;0.30;;;14.40;99.90;;;;;;5093376;28;20047;-71
2023/07/18 05:12:49;;;;;;;0.35;0.35;;;14.50;99.90;;;;;;5093405;28;20139;-71
2023/07/18 05:15:15;;;;;;;0.40;0.40;;;14.60;99.90;;;;;;5093107;28;20044;-71
2023/07/18 05:17:41;;;;;;;0.40;0.40;;;14.70;99.90;;;;;;5093681;28;20048;-71
2023/07/18 05:20:07;;;;;;;1.90;0.60;;;14.80;99.90;;;;;;5093418;28;20464;-71
2023/07/18 05:22:37;;;;;;;0.40;0.40;;;14.90;99.90;;;;;;5093322;28;20087;-71
2023/07/18 05:25:04;;;;;;;0.40;0.40;;;14.90;99.90;;;;;;5093170;28;20036;-71
2023/07/18 05:27:30;;;;;;;0.30;0.30;;;14.90;99.90;;;;;;5092082;28;20502;-72
2023/07/18 05:29:56;;;;;;;0.50;0.50;;;15.00;99.90;;;;;;5093375;28;20036;-70
2023/07/18 05:32:22;;;;;;;0.30;0.30;;;15.00;99.90;;;;;;5093299;28;20040;-70
2023/07/18 05:34:49;;;;;;;0.40;0.40;;;15.10;99.90;;;;;;5091556;28;20032;-70
2023/07/18 05:37:15;;;;;;;0.50;0.50;;;15.20;99.90;;;;;;5092522;28;20036;-69
2023/07/18 05:39:41;;;;;;;0.30;0.30;;;15.20;99.90;;;;;;5092890;28;20040;-70
2023/07/18 05:42:07;;;;;;;0.30;0.30;;;15.40;99.90;;;;;;5092955;28;20044;-71
2023/07/18 05:44:33;;;;;;;0.40;0.40;;;15.50;99.90;;;;;;5091734;28;20533;-70
2023/07/18 05:46:59;;;;;;;0.50;0.50;;;15.60;99.90;;;;;;5093170;28;20321;-70
2023/07/18 05:49:26;;;;;;;1.33;0.40;;;15.80;99.90;;;;;;5092806;28;20274;-70
2023/07/18 05:51:52;;;;;;;0.40;0.40;;;15.90;99.90;;;;;;5092534;28;20048;-70
2023/07/18 05:54:18;;;;;;;0.40;0.40;;;15.80;99.90;;;;;;5092978;28;20042;-71
2023/07/18 05:56:43;;;;;;;0.40;0.40;;;16.10;99.90;;;;;;5092889;28;20043;-69
2023/07/18 05:59:09;;;;;;;0.40;0.40;;;16.20;99.90;;;;;;5092493;28;20036;-70
2023/07/18 06:01:35;;;;;;;0.60;0.60;;;16.30;99.90;;;;;;5094384;28;20086;-71
2023/07/18 06:04:01;;;;;;;0.40;0.40;;;16.50;99.90;;;;;;5096392;28;20040;-71
2023/07/18 06:06:26;;;;;;;0.30;0.30;;;16.60;99.90;;;;;;5096249;28;20032;-70
2023/07/18 06:08:52;;;;;;;0.47;0.47;;;16.60;99.90;;;;;;5096139;28;20036;-70
2023/07/18 06:11:18;;;;;;;0.30;0.30;;;16.70;99.90;;;;;;5096344;28;20463;-71
2023/07/18 06:13:44;;;;;;;0.30;0.30;;;16.70;99.90;;;;;;5095915;28;20043;-72
2023/07/18 06:16:11;;;;;;;0.38;0.38;;;16.80;99.90;;;;;;5096204;28;20040;-71
2023/07/18 06:18:36;;;;;;;0.40;0.37;;;16.90;99.90;;;;;;5096158;28;20353;-71
2023/07/18 06:21:03;;;;;;;0.30;0.30;;;17.10;99.90;;;;;;5095830;28;20108;-70
2023/07/18 06:23:29;;;;;;;0.20;0.20;;;17.30;99.90;;;;;;5096136;28;20081;-72
2023/07/18 06:25:55;;;;;;;0.30;0.30;;;17.40;99.90;;;;;;5095595;28;20488;-71
2023/07/18 06:28:20;;;;;;;0.30;0.30;;;17.50;99.90;;;;;;5095641;28;20044;-72
2023/07/18 06:30:47;;;;;;;0.67;0.67;;;17.60;99.90;;;;;;5095785;28;20081;-70
2023/07/18 06:33:13;;;;;;;0.30;0.30;;;17.80;99.90;;;;;;5095571;28;20079;-71
2023/07/18 06:35:40;;;;;;;0.43;0.43;;;17.90;99.90;;;;;;5095720;28;20079;-71
2023/07/18 06:38:05;;;;;;;0.30;0.30;;;18.10;99.90;;;;;;5095791;28;20483;-74
2023/07/18 06:40:31;;;;;;;0.30;0.30;;;18.20;99.90;;;;;;5095477;28;20080;-73
2023/07/18 06:42:57;;;;;;;0.47;0.43;;;18.30;99.90;;;;;;5095591;28;20376;-72
2023/07/18 06:45:24;;;;;;;0.57;0.57;;;18.40;99.90;;;;;;5095663;28;20040;-72
2023/07/18 06:47:49;;;;;;;0.60;0.30;;;18.60;99.90;;;;;;5095327;28;20392;-72
2023/07/18 06:50:15;;;;;;;0.40;0.40;;;18.70;99.90;;;;;;5094961;28;20036;-72
2023/07/18 06:52:41;;;;;;;0.30;0.30;;;18.70;99.90;;;;;;5095539;28;20031;-72
2023/07/18 06:55:10;;;;;;;0.30;0.30;;;18.80;99.90;;;;;;5095406;28;20111;-72
2023/07/18 06:57:36;;;;;;;0.30;0.30;;;19.00;99.90;;;;;;5094964;28;20498;-71
2023/07/18 07:00:06;;;;;;;0.30;0.30;;;19.10;99.90;;;;;;5095386;28;20036;-71
2023/07/18 07:02:33;;;;;;;0.30;0.30;;;19.30;99.90;;;;;;5095361;28;20044;-74
2023/07/18 07:04:59;;;;;;;1.85;0.70;;;19.40;99.90;;;;;;5094760;28;20468;-73
2023/07/18 07:07:25;;;;;;;0.25;0.25;;;19.40;99.90;;;;;;5095369;28;20076;-74
2023/07/18 07:09:51;;;;;;;0.27;0.27;;;19.40;99.90;;;;;;5095167;28;20123;-70
2023/07/18 07:12:16;;;;;;;0.30;0.30;;;19.60;99.90;;;;;;5094356;28;20033;-72
2023/07/18 07:14:42;;;;;;;0.20;0.20;;;19.60;99.90;;;;;;5094807;28;20043;-72
2023/07/18 07:17:08;;;;;;;0.40;0.40;;;19.70;99.90;;;;;;5094712;28;20426;-72
2023/07/18 07:19:34;;;;;;;0.20;0.20;;;19.80;99.90;;;;;;5093744;28;20070;-73
2023/07/18 07:21:59;;;;;;;0.93;0.43;;;20.00;99.90;;;;;;5094736;28;20069;-71
2023/07/18 07:24:25;;;;;;;0.30;0.30;;;20.00;99.90;;;;;;5094867;28;20043;-71
2023/07/18 07:26:51;;;;;;;0.30;0.30;;;20.10;99.90;;;;;;5094413;28;20122;-75
2023/07/18 07:29:16;;;;;;;0.30;0.30;;;20.20;99.90;;;;;;5094725;28;20044;-73
2023/07/18 07:31:43;;;;;;;0.20;0.20;;;20.20;99.90;;;;;;5094858;28;20074;-73
2023/07/18 07:34:10;;;;;;;0.37;0.37;;;20.20;99.90;;;;;;5094472;28;20480;-71
2023/07/18 07:36:36;;;;;;;0.25;0.25;;;20.10;99.90;;;;;;5094671;28;20047;-74
2023/07/18 07:39:03;;;;;;;0.30;0.30;;;20.10;99.90;;;;;;5094396;28;20086;-74
2023/07/18 07:41:28;;;;;;;0.30;0.30;;;20.10;99.90;;;;;;5094280;28;20036;-75
2023/07/18 07:43:54;;;;;;;0.20;0.20;;;20.00;99.90;;;;;;5094461;28;20127;-72
2023/07/18 07:46:20;;;;;;;0.30;0.30;;;20.00;99.90;;;;;;5094388;28;20142;-74
2023/07/18 07:48:45;;;;;;;0.50;0.50;;;20.10;99.90;;;;;;5094902;28;20040;-77
2023/07/18 07:51:14;;;;;;;0.40;0.40;;;20.20;99.90;;;;;;5094255;28;20048;-70
2023/07/18 07:53:40;;;;;;;0.30;0.30;;;20.20;99.90;;;;;;5090729;28;20455;-70
2023/07/18 07:56:06;;;;;;;0.30;0.30;;;20.30;99.90;;;;;;5093434;28;20067;-69
2023/07/18 07:58:31;;;;;;;0.30;0.30;;;20.40;99.90;;;;;;5093066;28;20126;-72
2023/07/18 08:00:57;;;;;;;0.20;0.20;;;20.40;99.90;;;;;;5093107;28;20044;-73
2023/07/18 08:03:22;;;;;;;0.67;0.57;;;20.50;99.90;;;;;;5094129;28;20036;-71
2023/07/18 08:05:48;;;;;;;0.47;0.30;;;20.60;99.90;;;;;;5093360;28;20039;-71
2023/07/18 08:08:14;;;;;;;0.30;0.30;;;20.70;99.90;;;;;;5094278;28;20079;-75
2023/07/18 08:10:39;;;;;;;0.40;0.40;;;20.80;99.90;;;;;;5093754;28;20118;-73
2023/07/18 08:13:05;;;;;;;3.83;0.67;;;20.80;99.90;;;;;;5094148;28;20425;-72
2023/07/18 08:15:30;;;;;;;0.30;0.30;;;20.90;99.90;;;;;;5093331;28;20039;-73
2023/07/18 08:17:57;;;;;;;0.30;0.30;;;20.90;99.90;;;;;;5094038;28;20048;-72
2023/07/18 08:20:23;;;;;;;0.30;0.30;;;21.00;99.90;;;;;;5094011;28;20172;-73
2023/07/18 08:22:48;;;;;;;0.40;0.40;;;21.00;99.90;;;;;;5094055;28;20047;-72
2023/07/18 08:25:14;;;;;;;0.50;0.50;;;21.10;99.90;;;;;;5092882;28;20032;-70
2023/07/18 08:27:40;;;;;;;0.20;0.20;;;21.20;99.90;;;;;;5094765;28;20132;-70
2023/07/18 08:30:06;;;;;;;1.40;0.77;;;21.30;99.90;;;;;;5093499;28;20075;-70
2023/07/18 08:32:32;;;;;;;0.20;0.20;;;21.40;99.90;;;;;;5093741;28;20044;-71
2023/07/18 08:34:57;;;;;;;0.30;0.30;;;21.60;99.90;;;;;;5093930;28;20047;-74
2023/07/18 08:37:23;;;;;;;1.80;0.30;;;21.60;99.90;;;;;;5093646;28;20047;-71
2023/07/18 08:39:48;;;;;;;0.20;0.20;;;21.70;99.90;;;;;;5093977;28;20085;-72
2023/07/18 08:42:14;;;;;;;0.30;0.30;;;21.70;99.90;;;;;;5093760;28;20094;-71
2023/07/18 08:44:41;;;;;;;0.30;0.30;;;21.70;99.90;;;;;;5093748;28;20495;-71
2023/07/18 08:47:08;;;;;;;0.52;0.40;;;21.80;99.90;;;;;;5093349;28;20090;-73
2023/07/18 08:49:35;;;;;;;0.20;0.20;;;21.90;99.90;;;;;;5093129;28;20089;-73
2023/07/18 08:52:01;;;;;;;0.20;0.20;;;21.90;99.90;;;;;;5093578;28;20036;-70
2023/07/18 08:54:27;;;;;;;0.30;0.30;;;22.00;99.90;;;;;;5093592;28;20046;-71
2023/07/18 08:56:56;;;;;;;0.20;0.20;;;22.10;99.90;;;;;;5093547;28;20468;-69
2023/07/18 08:59:22;;;;;;;0.30;0.30;;;22.20;99.90;;;;;;5093502;28;20119;-69
2023/07/18 09:01:51;;;;;;;0.20;0.20;;;22.20;99.90;;;;;;5092406;28;20125;-72
2023/07/18 09:04:18;;;;;;;0.30;0.30;;;22.20;99.90;;;;;;5093434;28;20047;-70
2023/07/18 09:06:55;;;;;;;;;;;22.20;99.90;;;;;;5093899;28;20036;-70
2023/07/18 09:09:22;;;;;;;0.20;0.20;;;22.20;99.90;;;;;;5093412;28;20036;-71
2023/07/18 09:12:01;;;;;;;;;;;22.30;99.90;;;;;;5093707;28;20059;-72
2023/07/18 09:14:29;;;;;;;0.63;0.55;;;22.40;99.90;;;;;;5093021;28;19923;-70
2023/07/18 09:16:55;;;;;;;0.20;0.20;;;22.50;99.90;;;;;;5093236;28;20126;-70
2023/07/18 09:19:54;;;;;;;0.20;0.20;;;22.60;99.90;;;;;;5092157;28;20486;-69
2023/07/18 09:22:19;;;;;;;0.25;0.25;;;22.60;99.90;;;;;;5058251;28;20059;-71
2023/07/18 09:24:46;;;;;;;0.20;0.20;;;22.50;99.90;;;;;;5092051;28;20032;-70
2023/07/18 09:27:15;;;;;;;;;;;22.60;99.90;;;;;;5093749;28;20044;-71
2023/07/18 09:29:45;;;;;;;0.30;0.30;;;22.60;99.90;;;;;;5093495;28;20338;-71
2023/07/18 09:32:18;;;;;;;0.20;0.20;;;22.70;99.90;;;;;;5093316;28;20345;-70
2023/07/18 09:35:03;;;;;;;0.20;0.20;;;23.00;99.90;;;;;;5093338;28;20104;-72
2023/07/18 09:37:28;;;;;;;0.20;0.20;;;22.80;99.90;;;;;;5096521;28;20039;-71
2023/07/18 09:39:54;;;;;;;0.30;0.30;;;22.80;99.90;;;;;;5079117;28;20044;-71
2023/07/18 09:42:22;;;;;;;0.20;0.20;;;22.90;99.90;;;;;;5096978;28;20040;-71
2023/07/18 09:44:50;;;;;;;2.72;0.30;;;23.00;99.90;;;;;;5096851;28;20552;-72
2023/07/18 09:47:16;;;;;;;0.20;0.20;;;23.10;99.90;;;;;;5096937;28;20040;-72
2023/07/18 09:49:42;;;;;;;;;;;23.00;99.90;;;;;;5097385;28;20046;-72
2023/07/18 09:52:09;;;;;;;0.20;0.20;;;23.00;99.90;;;;;;5097155;28;19915;-71
2023/07/18 09:54:34;;;;;;;0.43;0.43;;;23.00;99.90;;;;;;5095867;28;20039;-71
2023/07/18 09:57:05;;;;;;;0.20;0.20;;;22.90;99.90;;;;;;5096793;28;20093;-71
2023/07/18 09:59:35;;;;;;;0.30;0.30;;;22.90;99.90;;;;;;5096676;28;20172;-71
2023/07/18 10:02:05;;;;;;;0.20;0.20;;;23.00;99.90;;;;;;5097358;28;20040;-70
2023/07/18 10:04:34;;;;;;;0.20;0.20;;;23.10;99.90;;;;;;5096844;28;20070;-72
2023/07/18 10:07:01;;;;;;;0.20;0.20;;;23.20;99.90;;;;;;5096759;28;20048;-71
2023/07/18 10:09:29;;;;;;;;;;;23.30;99.90;;;;;;5096974;28;20079;-70
2023/07/18 10:11:57;;;;;;;0.20;0.20;;;23.40;99.90;;;;;;5096439;28;19916;-72
2023/07/18 10:14:30;;;;;;;0.30;0.30;;;23.40;99.90;;;;;;5096431;28;20093;-72
2023/07/18 10:17:04;;;;;;;0.20;0.20;;;23.60;99.90;;;;;;5096686;28;20436;-70
2023/07/18 10:19:45;;;;;;;0.20;0.20;;;23.60;99.90;;;;;;5096399;28;20119;-71
2023/07/18 10:22:12;;;;;;;0.20;0.20;;;23.70;99.90;;;;;;5096474;28;20447;-71
2023/07/18 10:24:48;;;;;;;0.20;0.20;;;23.70;99.90;;;;;;5096420;28;20040;-71
2023/07/18 10:27:14;;;;;;;0.20;0.20;;;23.80;99.90;;;;;;5095663;28;20047;-71
2023/07/18 10:29:41;;;;;;;0.20;0.20;;;23.90;99.90;;;;;;5096184;28;20044;-72
2023/07/18 10:32:10;;;;;;;0.30;0.30;;;23.90;99.90;;;;;;5096360;28;20047;-71
2023/07/18 10:34:39;;;;;;;0.20;0.20;;;24.00;99.90;;;;;;5095978;28;20036;-71
2023/07/18 10:37:09;;;;;;;0.30;0.30;;;24.10;99.90;;;;;;5095967;28;20477;-70
2023/07/18 10:39:38;;;;;;;0.52;0.52;;;24.20;99.90;;;;;;5094754;28;20475;-71
2023/07/18 10:42:06;;;;;;;0.30;0.30;;;24.30;99.90;;;;;;5094934;28;20048;-72
2023/07/18 10:44:33;;;;;;;0.20;0.20;;;24.40;99.90;;;;;;5096020;28;20102;-70
2023/07/18 10:46:59;;;;;;;0.20;0.20;;;24.50;99.90;;;;;;5094169;28;20043;-70
2023/07/18 10:49:25;;;;;;;0.20;0.20;;;24.50;99.90;;;;;;5095195;28;20058;-70
2023/07/18 10:51:54;;;;;;;0.50;0.50;;;24.60;99.90;;;;;;5096144;28;20036;-72
2023/07/18 10:54:20;;;;;;;0.20;0.20;;;24.50;99.90;;;;;;5095878;28;20043;-72
2023/07/18 10:56:47;;;;;;;0.30;0.30;;;24.40;99.90;;;;;;5095515;28;20028;-71
2023/07/18 10:59:14;;;;;;;0.22;0.22;;;24.40;99.90;;;;;;5094371;28;20491;-72
2023/07/18 11:01:40;;;;;;;0.20;0.20;;;24.40;99.90;;;;;;5095555;28;20088;-71
2023/07/18 11:04:07;;;;;;;0.25;0.25;;;24.40;99.90;;;;;;5095476;28;20058;-70
2023/07/18 11:06:34;;;;;;;0.20;0.20;;;24.30;99.90;;;;;;5095827;28;20040;-73
2023/07/18 11:08:59;;;;;;;0.20;0.20;;;24.30;99.90;;;;;;5095401;28;20123;-72
2023/07/18 11:11:25;;;;;;;0.23;0.23;;;24.30;99.90;;;;;;5095349;28;20444;-71
2023/07/18 11:13:51;;;;;;;0.20;0.20;;;24.20;99.90;;;;;;5095359;28;20089;-71
2023/07/18 11:16:16;;;;;;;0.20;0.20;;;24.30;99.90;;;;;;5095239;28;20028;-73
2023/07/18 11:18:44;;;;;;;0.20;0.20;;;24.40;99.90;;;;;;5093374;28;20048;-71
2023/07/18 11:21:11;;;;;;;0.20;0.20;;;24.40;99.90;;;;;;5095149;28;20754;-71
2023/07/18 11:23:37;;;;;;;;;;;24.40;99.90;;;;;;5095493;28;20036;-72
2023/07/18 11:26:13;;;;;;;0.20;0.20;;;24.40;99.90;;;;;;5095047;28;19920;-71
2023/07/18 11:28:44;;;;;;;0.45;0.40;;;24.40;99.90;;;;;;5094988;28;20047;-71
2023/07/18 11:31:30;;;;;;;0.20;0.20;;;24.30;99.90;;;;;;5095028;28;20110;-70
2023/07/18 11:34:05;;;;;;;0.28;0.28;;;24.20;99.90;;;;;;5095355;28;20040;-71
2023/07/18 11:36:32;;;;;;;0.20;0.20;;;24.10;99.90;;;;;;5094938;28;20043;-71
2023/07/18 11:38:59;;;;;;;0.20;0.20;;;24.00;99.90;;;;;;5094743;28;20173;-71
2023/07/18 11:41:36;;;;;;;0.20;0.20;;;24.10;99.90;;;;;;5094746;28;20490;-73
2023/07/18 11:44:03;;;;;;;0.20;0.20;;;24.00;99.90;;;;;;5094631;28;20044;-70
2023/07/18 11:46:43;;;;;;;0.30;0.30;;;24.00;99.90;;;;;;5094560;28;20297;-71
2023/07/18 11:49:12;;;;;;;0.30;0.30;;;23.90;99.90;;;;;;5094613;28;20034;-72
2023/07/18 11:51:40;;;;;;;0.30;0.30;;;24.00;99.90;;;;;;5094551;28;20088;-72
2023/07/18 11:54:06;;;;;;;0.20;0.20;;;24.20;99.90;;;;;;5094599;28;20044;-70
2023/07/18 11:56:37;;;;;;;0.20;0.20;;;24.30;99.90;;;;;;5094123;28;20488;-70
2023/07/18 11:59:03;;;;;;;0.40;0.40;;;24.50;99.90;;;;;;5094266;28;20392;-71
2023/07/18 12:01:31;;;;;;;0.30;0.30;;;24.60;99.90;;;;;;5094452;28;20039;-71
2023/07/18 12:03:56;;;;;;;0.20;0.20;;;24.60;99.90;;;;;;5094482;28;20047;-72
2023/07/18 12:06:22;;;;;;;0.20;0.20;;;24.60;99.70;;;;;;5094355;28;20187;-71
2023/07/18 12:08:49;;;;;;;0.20;0.20;;;24.70;99.90;;;;;;5110042;28;20063;-71
2023/07/18 12:11:15;;;;;;;0.20;0.20;;;24.80;99.90;;;;;;5094117;28;20044;-71
2023/07/18 12:13:41;;;;;;;0.20;0.20;;;24.90;99.90;;;;;;5094263;28;20040;-72
2023/07/18 12:16:07;;;;;;;0.20;0.20;;;25.10;99.90;;;;;;5094108;28;20040;-70
2023/07/18 12:18:33;;;;;;;0.20;0.20;;;25.30;99.90;;;;;;5094300;28;20063;-70
2023/07/18 12:20:58;;;;;;;0.20;0.20;;;25.40;99.90;;;;;;5094159;28;20365;-71
2023/07/18 12:23:25;;;;;;;0.20;0.20;;;25.30;99.90;;;;;;5094104;28;20044;-72
2023/07/18 12:25:51;;;;;;;0.30;0.30;;;25.20;99.90;;;;;;5093895;28;20615;-72
2023/07/18 12:28:17;;;;;;;;;;;25.00;99.90;;;;;;5094360;28;20028;-71
2023/07/18 12:30:43;;;;;;;0.20;0.20;;;24.90;99.60;;;;;;5093959;28;19920;-71
2023/07/18 12:33:08;;;;;;;0.20;0.20;;;24.90;99.90;;;;;;5093954;28;20490;-71
2023/07/18 12:35:34;;;;;;;0.20;0.20;;;24.90;99.90;;;;;;5093918;28;20374;-71
2023/07/18 12:38:01;;;;;;;0.20;0.20;;;24.80;99.80;;;;;;5093730;28;20119;-71
2023/07/18 12:40:26;;;;;;;0.30;0.30;;;24.80;99.90;;;;;;5093742;28;20051;-72
2023/07/18 12:42:52;;;;;;;0.20;0.20;;;24.90;99.90;;;;;;5093844;28;20036;-71
2023/07/18 12:45:18;;;;;;;0.27;0.27;;;24.80;99.90;;;;;;5094333;28;20093;-72
2023/07/18 12:47:44;;;;;;;0.20;0.20;;;24.60;99.90;;;;;;5093682;28;20044;-72